createdAt,value
2022-08-26T00:01:45.030Z,96048.25
2022-08-26T00:04:12.678Z,96049.00
2022-08-26T00:06:42.528Z,96050.94
2022-08-26T00:09:13.634Z,96047.84
2022-08-26T00:11:43.072Z,96038.72
2022-08-26T00:14:09.548Z,96046.34
2022-08-26T00:16:36.452Z,96040.97
2022-08-26T00:19:07.354Z,96042.50
2022-08-26T00:21:35.144Z,96042.94
2022-08-26T00:24:04.423Z,96046.44
2022-08-26T00:26:31.010Z,96049.53
2022-08-26T00:28:57.482Z,96050.34
2022-08-26T00:31:23.999Z,96042.34
2022-08-26T00:33:50.517Z,96039.75
2022-08-26T00:36:20.113Z,96050.84
2022-08-26T00:38:48.048Z,96043.38
2022-08-26T00:41:15.060Z,96042.97
2022-08-26T00:43:47.389Z,96042.63
2022-08-26T00:46:19.770Z,96034.31
2022-08-26T00:48:49.936Z,96041.91
2022-08-26T00:51:23.131Z,96043.44
2022-08-26T00:53:57.522Z,96034.22
2022-08-26T00:56:31.798Z,96044.22
2022-08-26T00:59:09.129Z,96043.50
2022-08-26T01:01:38.037Z,96048.53
2022-08-26T01:04:05.884Z,96049.38
2022-08-26T01:06:32.504Z,96043.31
2022-08-26T01:08:58.991Z,96026.22
2022-08-26T01:11:26.053Z,96029.56
2022-08-26T01:13:56.525Z,96025.75
2022-08-26T01:16:25.495Z,96033.75
2022-08-26T01:18:58.234Z,96026.13
2022-08-26T01:22:26.629Z,96035.69
2022-08-26T01:24:55.113Z,96032.31
2022-08-26T01:27:23.424Z,96035.66
2022-08-26T01:29:51.658Z,96035.69
2022-08-26T01:32:22.396Z,96038.78
2022-08-26T01:34:50.444Z,96029.75
2022-08-26T01:37:29.353Z,96027.72
2022-08-26T01:39:56.836Z,96029.34
2022-08-26T01:42:25.966Z,96039.00
2022-08-26T01:44:59.237Z,96032.16
2022-08-26T01:47:29.960Z,96036.38
2022-08-26T01:50:27.696Z,96039.44
2022-08-26T01:53:00.016Z,96032.63
2022-08-26T01:55:33.499Z,96029.63
2022-08-26T01:58:06.148Z,96029.56
2022-08-26T02:00:35.262Z,96028.44
2022-08-26T02:03:17.115Z,96028.50
2022-08-26T02:05:55.361Z,96023.91
2022-08-26T02:08:26.517Z,96035.78
2022-08-26T02:10:54.827Z,96042.22
2022-08-26T02:13:23.123Z,96031.63
2022-08-26T02:15:52.211Z,96032.41
2022-08-26T02:18:19.341Z,96040.81
2022-08-26T02:20:45.953Z,96038.91
2022-08-26T02:23:12.523Z,96035.09
2022-08-26T02:25:49.911Z,96035.50
2022-08-26T02:28:17.636Z,96032.88
2022-08-26T02:30:47.590Z,96035.94
2022-08-26T02:33:14.678Z,96033.31
2022-08-26T02:35:41.428Z,96012.47
2022-08-26T02:38:11.242Z,96031.44
2022-08-26T02:40:42.210Z,96035.25
2022-08-26T02:43:09.680Z,96026.13
2022-08-26T02:45:36.555Z,96033.38
2022-08-26T02:48:11.884Z,96036.47
2022-08-26T02:50:38.658Z,96027.66
2022-08-26T02:53:06.658Z,96027.66
2022-08-26T02:55:33.727Z,96022.00
2022-08-26T02:58:01.246Z,96030.78
2022-08-26T03:00:28.421Z,96032.75
2022-08-26T03:02:55.150Z,96024.75
2022-08-26T03:05:24.081Z,96025.09
2022-08-26T03:07:51.093Z,96022.84
2022-08-26T03:10:18.223Z,96022.81
2022-08-26T03:12:47.332Z,96025.53
2022-08-26T03:15:17.767Z,96017.91
2022-08-26T03:17:47.352Z,96021.38
2022-08-26T03:20:15.561Z,96022.91
2022-08-26T03:22:44.398Z,96017.22
2022-08-26T03:25:13.405Z,96016.84
2022-08-26T03:27:41.897Z,96013.41
2022-08-26T03:30:29.934Z,96011.09
2022-08-26T03:32:56.650Z,96015.69
2022-08-26T03:35:25.553Z,96005.44
2022-08-26T03:37:52.368Z,96005.88
2022-08-26T03:40:20.269Z,95998.66
2022-08-26T03:42:47.759Z,96001.28
2022-08-26T03:45:16.497Z,96000.88
2022-08-26T03:47:44.547Z,96006.97
2022-08-26T03:50:14.074Z,96006.63
2022-08-26T03:52:43.931Z,96014.66
2022-08-26T03:55:11.350Z,96000.88
2022-08-26T03:57:37.927Z,96002.03
2022-08-26T04:00:08.528Z,96004.78
2022-08-26T04:02:35.056Z,96010.91
2022-08-26T04:05:02.562Z,96013.25
2022-08-26T04:07:30.396Z,96014.75
2022-08-26T04:09:59.130Z,96023.50
2022-08-26T04:12:25.984Z,96010.94
2022-08-26T04:14:53.533Z,96013.56
2022-08-26T04:17:21.114Z,96015.81
2022-08-26T04:19:54.674Z,96012.78
2022-08-26T04:22:25.027Z,96018.47
2022-08-26T04:24:52.164Z,96018.47
2022-08-26T04:27:19.072Z,96014.31
2022-08-26T04:29:46.558Z,96021.53
2022-08-26T04:32:15.525Z,96014.97
2022-08-26T04:34:43.282Z,96019.84
2022-08-26T04:37:11.597Z,96018.34
2022-08-26T04:39:38.175Z,96015.69
2022-08-26T04:42:05.891Z,96024.75
2022-08-26T04:44:36.117Z,96022.41
2022-08-26T04:47:02.972Z,96019.66
2022-08-26T04:49:35.191Z,96025.59
2022-08-26T04:52:02.603Z,96012.22
2022-08-26T04:54:29.070Z,96019.75
2022-08-26T04:56:55.971Z,96020.53
2022-08-26T04:59:22.901Z,96022.56
2022-08-26T05:01:53.243Z,96021.25
2022-08-26T05:04:20.693Z,96018.41
2022-08-26T05:06:48.199Z,96010.72
2022-08-26T05:09:15.530Z,96027.75
2022-08-26T05:11:42.063Z,96029.19
2022-08-26T05:14:08.629Z,96020.81
2022-08-26T05:16:35.241Z,96026.69
2022-08-26T05:19:02.924Z,96037.69
2022-08-26T05:21:29.464Z,96035.66
2022-08-26T05:23:56.326Z,96050.38
2022-08-26T05:26:25.122Z,96048.28
2022-08-26T05:28:54.869Z,96043.16
2022-08-26T05:31:26.207Z,96048.22
2022-08-26T05:33:52.992Z,96046.75
2022-08-26T05:36:22.315Z,96042.38
2022-08-26T05:38:49.339Z,96043.03
2022-08-26T05:41:24.784Z,96064.78
2022-08-26T05:43:52.375Z,96047.06
2022-08-26T05:46:19.221Z,96045.75
2022-08-26T05:48:46.128Z,96050.97
2022-08-26T05:51:14.165Z,96049.88
2022-08-26T05:53:43.980Z,96052.63
2022-08-26T05:56:24.914Z,96056.47
2022-08-26T05:58:51.994Z,96052.47
2022-08-26T06:01:21.749Z,96042.66
2022-08-26T06:03:54.741Z,96063.13
2022-08-26T06:06:27.398Z,96047.34
2022-08-26T06:08:55.318Z,96057.16
2022-08-26T06:11:27.366Z,96051.81
2022-08-26T06:13:58.898Z,96052.69
2022-08-26T06:16:28.771Z,96049.97
2022-08-26T06:18:55.531Z,96060.22
2022-08-26T06:21:26.307Z,96058.22
2022-08-26T06:24:14.163Z,96063.16
2022-08-26T06:26:42.799Z,96055.59
2022-08-26T06:29:09.925Z,96057.72
2022-08-26T06:31:36.591Z,96059.97
2022-08-26T06:34:09.851Z,96054.63
2022-08-26T06:36:37.858Z,96054.94
2022-08-26T06:39:10.390Z,96064.19
2022-08-26T06:41:42.792Z,96062.59
2022-08-26T06:44:09.894Z,96066.34
2022-08-26T06:46:36.694Z,96064.66
2022-08-26T06:49:03.872Z,96064.25
2022-08-26T06:51:34.213Z,96058.06
2022-08-26T06:54:03.081Z,96055.38
2022-08-26T06:56:39.530Z,96065.59
2022-08-26T06:59:07.672Z,96060.16
2022-08-26T07:01:38.354Z,96060.06
2022-08-26T07:04:10.466Z,96065.03
2022-08-26T07:06:39.835Z,96055.97
2022-08-26T07:09:09.848Z,96071.06
2022-08-26T07:11:38.821Z,96069.66
2022-08-26T07:14:06.187Z,96068.69
2022-08-26T07:16:33.267Z,96062.91
2022-08-26T07:19:01.170Z,96051.72
2022-08-26T07:21:30.094Z,96060.72
2022-08-26T07:24:01.254Z,96059.78
2022-08-26T07:26:30.273Z,96053.53
2022-08-26T07:28:58.390Z,96057.44
2022-08-26T07:31:28.453Z,96062.91
2022-08-26T07:33:56.800Z,96066.56
2022-08-26T07:36:24.598Z,96064.91
2022-08-26T07:38:52.342Z,96060.53
2022-08-26T07:41:22.733Z,96065.97
2022-08-26T07:43:50.686Z,96060.06
2022-08-26T07:46:20.742Z,96059.59
2022-08-26T07:48:54.684Z,96057.91
2022-08-26T07:51:22.677Z,96053.69
2022-08-26T07:53:52.748Z,96050.81
2022-08-26T07:56:20.859Z,96045.47
2022-08-26T07:58:51.348Z,96054.75
2022-08-26T08:01:23.983Z,96047.38
2022-08-26T08:03:51.862Z,96054.75
2022-08-26T08:06:21.032Z,96054.00
2022-08-26T08:08:48.434Z,96048.50
2022-08-26T08:11:21.050Z,96056.25
2022-08-26T08:13:49.764Z,96051.28
2022-08-26T08:16:24.318Z,96048.59
2022-08-26T08:18:51.126Z,96050.50
2022-08-26T08:21:21.063Z,96055.34
2022-08-26T08:23:48.777Z,96048.63
2022-08-26T08:26:15.432Z,96041.81
2022-08-26T08:28:43.669Z,96042.41
2022-08-26T08:31:21.590Z,96039.13
2022-08-26T08:33:59.874Z,96051.44
2022-08-26T08:36:26.647Z,96039.72
2022-08-26T08:39:02.463Z,96042.84
2022-08-26T08:41:50.357Z,96040.09
2022-08-26T08:44:31.481Z,96043.88
2022-08-26T08:47:33.983Z,96037.56
2022-08-26T08:50:27.397Z,96030.03
2022-08-26T08:53:15.328Z,96028.28
2022-08-26T08:55:51.512Z,96033.53
2022-08-26T08:58:29.699Z,96030.59
2022-08-26T09:01:04.765Z,96031.94
2022-08-26T09:03:55.433Z,96028.84
2022-08-26T09:06:22.491Z,96030.47
2022-08-26T09:08:51.675Z,96031.44
2022-08-26T09:11:20.375Z,96031.41
2022-08-26T09:13:52.899Z,96033.84
2022-08-26T09:16:44.070Z,96032.53
2022-08-26T09:19:23.237Z,96032.13
2022-08-26T09:21:58.210Z,96034.97
2022-08-26T09:24:28.641Z,96027.38
2022-08-26T09:26:58.170Z,96038.75
2022-08-26T09:29:29.962Z,96030.88
2022-08-26T09:32:20.249Z,96036.31
2022-08-26T09:34:58.899Z,96035.63
2022-08-26T09:40:36.592Z,96028.28
2022-08-26T09:43:08.917Z,96036.00
2022-08-26T09:45:36.697Z,96022.75
2022-08-26T09:48:03.757Z,96035.88
2022-08-26T09:50:52.121Z,96036.13
2022-08-26T09:53:25.205Z,96019.03
2022-08-26T09:56:16.004Z,96015.00
2022-08-26T09:58:46.117Z,96015.34
2022-08-26T10:01:32.899Z,96006.94
2022-08-26T10:04:14.994Z,96012.63
2022-08-26T10:07:05.165Z,96002.34
2022-08-26T10:09:36.340Z,96007.09
2022-08-26T10:12:08.433Z,96004.00
2022-08-26T10:17:29.161Z,95989.69
2022-08-26T10:20:06.471Z,95993.38
2022-08-26T10:23:07.594Z,95983.91
2022-08-26T10:25:43.865Z,95990.44
2022-08-26T10:28:25.407Z,95992.53
2022-08-26T10:30:56.522Z,95988.63
2022-08-26T10:33:24.464Z,95983.56
2022-08-26T10:35:55.787Z,95992.16
2022-08-26T10:38:29.341Z,95977.72
2022-08-26T10:41:17.062Z,95980.06
2022-08-26T10:43:57.684Z,95973.44
2022-08-26T10:46:37.278Z,95970.34
2022-08-26T10:49:13.950Z,95983.94
2022-08-26T10:52:03.259Z,95982.34
2022-08-26T10:54:59.866Z,95992.47
2022-08-26T10:57:35.495Z,95985.53
2022-08-26T11:00:37.803Z,95971.94
2022-08-26T11:03:29.727Z,95973.31
2022-08-26T11:06:15.844Z,95977.88
2022-08-26T11:09:01.135Z,95966.00
2022-08-26T11:11:39.750Z,95968.06
2022-08-26T11:14:09.721Z,95969.81
2022-08-26T11:16:37.104Z,95964.31
2022-08-26T11:19:12.224Z,95962.47
2022-08-26T11:21:57.079Z,95966.22
2022-08-26T11:25:00.751Z,95968.13
2022-08-26T11:27:35.087Z,95973.03
2022-08-26T11:30:13.941Z,95973.78
2022-08-26T11:32:40.340Z,95962.34
2022-08-26T11:35:37.450Z,95961.53
2022-08-26T11:38:17.050Z,95951.19
2022-08-26T11:40:45.282Z,95943.22
2022-08-26T11:43:23.055Z,95947.13
2022-08-26T11:45:59.623Z,95947.84
2022-08-26T11:48:26.092Z,95938.44
2022-08-26T11:51:08.639Z,95934.97
2022-08-26T11:53:40.787Z,95936.69
2022-08-26T11:56:24.530Z,95934.56
2022-08-26T11:58:56.822Z,95934.91
2022-08-26T12:01:28.879Z,95931.72
2022-08-26T12:03:59.630Z,95929.94
2022-08-26T12:06:28.289Z,95939.69
2022-08-26T12:08:59.149Z,95925.16
2022-08-26T12:11:28.254Z,95933.25
2022-08-26T12:14:00.811Z,95926.09
2022-08-26T12:16:37.035Z,95916.50
2022-08-26T12:19:26.389Z,95910.28
2022-08-26T12:22:22.070Z,95914.38
2022-08-26T12:24:50.202Z,95921.50
2022-08-26T12:27:29.754Z,95911.34
2022-08-26T12:30:20.259Z,95901.69
2022-08-26T12:32:52.850Z,95899.94
2022-08-26T12:35:25.417Z,95901.28
2022-08-26T12:37:54.033Z,95900.53
2022-08-26T12:40:45.139Z,95901.09
2022-08-26T12:43:17.135Z,95888.72
2022-08-26T12:45:55.769Z,95903.94
2022-08-26T12:48:27.108Z,95902.69
2022-08-26T12:50:53.479Z,95896.75
2022-08-26T12:53:19.852Z,95892.47
2022-08-26T12:55:52.748Z,95878.66
2022-08-26T12:58:26.397Z,95885.00
2022-08-26T13:01:09.417Z,95882.47
2022-08-26T13:03:38.670Z,95878.41
2022-08-26T13:06:31.620Z,95876.06
2022-08-26T13:09:25.108Z,95879.38
2022-08-26T13:11:53.131Z,95875.31
2022-08-26T13:14:24.197Z,95868.06
2022-08-26T13:16:52.407Z,95867.31
2022-08-26T13:19:22.033Z,95869.22
2022-08-26T13:21:53.812Z,95871.34
2022-08-26T13:24:33.786Z,95875.81
2022-08-26T13:27:01.666Z,95873.91
2022-08-26T13:29:28.241Z,95867.13
2022-08-26T13:31:55.404Z,95863.53
2022-08-26T13:34:23.355Z,95860.31
2022-08-26T13:36:52.470Z,95870.50
2022-08-26T13:39:19.140Z,95859.97
2022-08-26T13:41:46.151Z,95862.91
2022-08-26T13:44:13.534Z,95861.31
2022-08-26T13:46:40.475Z,95865.00
2022-08-26T13:49:07.891Z,95857.81
2022-08-26T13:51:34.556Z,95861.97
2022-08-26T13:54:01.088Z,95867.31
2022-08-26T13:56:29.660Z,95858.97
2022-08-26T13:58:57.470Z,95858.28
2022-08-26T14:01:24.435Z,95854.09
2022-08-26T14:03:51.090Z,95858.09
2022-08-26T14:06:18.068Z,95855.78
2022-08-26T14:08:45.131Z,95858.94
2022-08-26T14:11:12.061Z,95862.34
2022-08-26T14:13:39.231Z,95859.28
2022-08-26T14:16:10.527Z,95862.31
2022-08-26T14:18:43.036Z,95863.09
2022-08-26T14:21:13.217Z,95862.50
2022-08-26T14:23:40.165Z,95853.59
2022-08-26T14:26:21.406Z,95860.28
2022-08-26T14:29:00.268Z,95855.38
2022-08-26T14:31:29.260Z,95847.75
2022-08-26T14:34:02.664Z,95842.06
2022-08-26T14:36:29.363Z,95840.28
2022-08-26T14:38:58.194Z,95839.88
2022-08-26T14:41:25.421Z,95834.91
2022-08-26T14:43:57.892Z,95839.13
2022-08-26T14:46:28.952Z,95835.09
2022-08-26T14:49:00.967Z,95837.09
2022-08-26T14:51:28.557Z,95831.44
2022-08-26T14:54:13.242Z,95834.78
2022-08-26T14:56:59.197Z,95836.06
2022-08-26T14:59:35.473Z,95836.47
2022-08-26T15:02:02.548Z,95824.53
2022-08-26T15:04:29.486Z,95831.53
2022-08-26T15:06:58.615Z,95828.06
2022-08-26T15:09:27.062Z,95837.25
2022-08-26T15:11:53.575Z,95836.34
2022-08-26T15:14:21.834Z,95827.03
2022-08-26T15:16:50.966Z,95821.88
2022-08-26T15:19:18.365Z,95823.19
2022-08-26T15:21:45.569Z,95820.97
2022-08-26T15:24:12.735Z,95809.97
2022-08-26T15:26:39.325Z,95814.97
2022-08-26T15:29:06.085Z,95819.22
2022-08-26T15:31:33.222Z,95828.44
2022-08-26T15:34:04.005Z,95818.63
2022-08-26T15:36:31.383Z,95823.88
2022-08-26T15:39:00.310Z,95815.44
2022-08-26T15:41:27.395Z,95811.97
2022-08-26T15:43:53.850Z,95810.59
2022-08-26T15:46:20.454Z,95810.84
2022-08-26T15:48:46.999Z,95808.09
2022-08-26T15:51:22.267Z,95805.84
2022-08-26T15:53:49.393Z,95796.59
2022-08-26T15:56:16.421Z,95794.59
2022-08-26T15:58:43.106Z,95798.78
2022-08-26T16:01:11.244Z,95801.66
2022-08-26T16:03:37.933Z,95794.28
2022-08-26T16:06:04.669Z,95795.72
2022-08-26T16:08:31.354Z,95784.19
2022-08-26T16:11:04.078Z,95787.34
2022-08-26T16:13:39.805Z,95775.97
2022-08-26T16:16:07.529Z,95770.56
2022-08-26T16:18:34.374Z,95767.06
2022-08-26T16:21:13.218Z,95778.97
2022-08-26T16:23:40.610Z,95768.34
2022-08-26T16:26:14.125Z,95771.16
2022-08-26T16:28:40.727Z,95780.75
2022-08-26T16:31:07.281Z,95775.13
2022-08-26T16:33:33.863Z,95776.44
2022-08-26T16:36:00.346Z,95788.47
2022-08-26T16:38:26.878Z,95787.44
2022-08-26T16:40:53.321Z,95779.19
2022-08-26T16:43:19.787Z,95782.53
2022-08-26T16:45:46.260Z,95787.94
2022-08-26T16:48:12.805Z,95777.31
2022-08-26T16:50:40.790Z,95784.81
2022-08-26T16:53:07.887Z,95781.69
2022-08-26T16:55:35.524Z,95783.97
2022-08-26T16:58:02.276Z,95787.91
2022-08-26T17:00:33.171Z,95784.06
2022-08-26T17:03:00.957Z,95789.44
2022-08-26T17:05:28.377Z,95790.34
2022-08-26T17:07:56.703Z,95794.88
2022-08-26T17:10:24.690Z,95792.94
2022-08-26T17:12:51.215Z,95783.34
2022-08-26T17:15:18.107Z,95796.56
2022-08-26T17:17:44.768Z,95789.53
2022-08-26T17:20:13.984Z,95798.53
2022-08-26T17:22:43.837Z,95796.91
2022-08-26T17:25:13.666Z,95793.00
2022-08-26T17:27:40.886Z,95795.53
2022-08-26T17:30:08.069Z,95792.69
2022-08-26T17:32:35.123Z,95796.13
2022-08-26T17:35:02.805Z,95799.84
2022-08-26T17:37:29.512Z,95799.06
2022-08-26T17:39:56.206Z,95806.00
2022-08-26T17:42:22.758Z,95814.97
2022-08-26T17:44:58.516Z,95816.78
2022-08-26T17:47:25.065Z,95814.94
2022-08-26T17:49:51.565Z,95817.59
2022-08-26T17:52:18.107Z,95813.13
2022-08-26T17:54:44.698Z,95814.38
2022-08-26T17:57:11.231Z,95827.84
2022-08-26T17:59:38.643Z,95824.34
2022-08-26T18:02:07.445Z,95835.69
2022-08-26T18:04:33.988Z,95834.66
2022-08-26T18:07:01.274Z,95834.91
2022-08-26T18:09:31.203Z,95837.41
2022-08-26T18:11:58.811Z,95826.75
2022-08-26T18:14:25.356Z,95842.47
2022-08-26T18:16:52.153Z,95850.84
2022-08-26T18:19:18.731Z,95851.09
2022-08-26T18:21:45.350Z,95846.22
2022-08-26T18:24:14.003Z,95859.94
2022-08-26T18:26:48.050Z,95863.19
2022-08-26T18:29:16.632Z,95862.22
2022-08-26T18:31:43.312Z,95854.94
2022-08-26T18:34:13.088Z,95871.28
2022-08-26T18:36:40.349Z,95872.47
2022-08-26T18:39:08.210Z,95855.19
2022-08-26T18:41:46.267Z,95865.53
2022-08-26T18:44:14.030Z,95872.53
2022-08-26T18:46:41.304Z,95870.41
2022-08-26T18:49:08.332Z,95876.34
2022-08-26T18:51:35.537Z,95876.16
2022-08-26T18:54:04.719Z,95881.66
2022-08-26T18:56:32.322Z,95881.13
2022-08-26T18:58:59.910Z,95891.44
2022-08-26T19:01:28.179Z,95893.38
2022-08-26T19:03:56.107Z,95885.44
2022-08-26T19:06:24.614Z,95878.34
2022-08-26T19:08:51.614Z,95896.94
2022-08-26T19:11:32.266Z,95889.19
2022-08-26T19:14:06.925Z,95880.47
2022-08-26T19:16:33.948Z,95883.28
2022-08-26T19:19:01.788Z,95886.06
2022-08-26T19:21:28.699Z,95884.78
2022-08-26T19:23:59.773Z,95885.00
2022-08-26T19:26:27.395Z,95893.16
2022-08-26T19:28:53.928Z,95882.50
2022-08-26T19:31:20.666Z,95887.66
2022-08-26T19:33:47.547Z,95888.41
2022-08-26T19:36:22.081Z,95893.78
2022-08-26T19:38:48.923Z,95897.75
2022-08-26T19:41:19.719Z,95894.00
2022-08-26T19:43:47.004Z,95896.34
2022-08-26T19:46:17.366Z,95887.31
2022-08-26T19:48:44.957Z,95896.88
2022-08-26T19:51:17.498Z,95893.31
2022-08-26T19:53:45.560Z,95899.44
2022-08-26T19:56:13.222Z,95899.44
2022-08-26T19:58:41.015Z,95897.28
2022-08-26T20:01:08.658Z,95893.69
2022-08-26T20:03:36.085Z,95888.72
2022-08-26T20:06:05.194Z,95891.41
2022-08-26T20:08:32.658Z,95880.66
2022-08-26T20:11:04.850Z,95878.63
2022-08-26T20:13:32.414Z,95885.06
2022-08-26T20:16:24.152Z,95881.13
2022-08-26T20:19:09.232Z,95882.81
2022-08-26T20:21:38.172Z,95882.91
2022-08-26T20:24:11.352Z,95879.25
2022-08-26T20:26:39.952Z,95881.94
2022-08-26T20:29:08.139Z,95881.06
2022-08-26T20:31:35.370Z,95881.59
2022-08-26T20:34:02.905Z,95879.75
2022-08-26T20:36:30.043Z,95894.25
2022-08-26T20:38:57.032Z,95889.75
2022-08-26T20:41:25.633Z,95882.31
2022-08-26T20:43:55.330Z,95878.63
2022-08-26T20:46:56.991Z,95883.84
2022-08-26T20:49:23.432Z,95889.16
2022-08-26T20:51:51.447Z,95883.28
2022-08-26T20:54:19.258Z,95893.53
2022-08-26T20:56:46.393Z,95895.22
2022-08-26T20:59:14.134Z,95901.00
2022-08-26T21:01:42.391Z,95899.50
2022-08-26T21:04:13.986Z,95899.16
2022-08-26T21:06:42.264Z,95900.00
2022-08-26T21:09:14.688Z,95889.34
2022-08-26T21:11:43.882Z,95886.66
2022-08-26T21:14:15.962Z,95880.56
2022-08-26T21:16:43.978Z,95882.97
2022-08-26T21:19:13.289Z,95888.31
2022-08-26T21:24:21.277Z,95895.09
2022-08-26T21:26:47.841Z,95895.03
2022-08-26T21:29:14.476Z,95891.59
2022-08-26T21:31:46.078Z,95891.59
2022-08-26T21:34:14.900Z,95887.81
2022-08-26T21:36:41.794Z,95890.91
2022-08-26T21:39:11.778Z,95884.94
2022-08-26T21:41:39.594Z,95885.03
2022-08-26T21:44:06.648Z,95884.69
2022-08-26T21:46:34.454Z,95881.75
2022-08-26T21:49:03.436Z,95886.63
2022-08-26T21:51:35.295Z,95896.31
2022-08-26T21:54:02.887Z,95886.78
2022-08-26T21:56:31.593Z,95889.22
2022-08-26T21:58:59.318Z,95890.44
2022-08-26T22:01:31.829Z,95892.78
2022-08-26T22:03:58.937Z,95894.03
2022-08-26T22:06:27.483Z,95903.38
2022-08-26T22:08:54.236Z,95890.63
2022-08-26T22:11:20.907Z,95888.03
2022-08-26T22:13:48.571Z,95892.91
2022-08-26T22:16:15.630Z,95887.63
2022-08-26T22:18:43.830Z,95880.34
2022-08-26T22:21:16.748Z,95890.72
2022-08-26T22:23:44.207Z,95886.84
2022-08-26T22:26:12.966Z,95892.91
2022-08-26T22:28:39.792Z,95885.25
2022-08-26T22:31:11.299Z,95881.94
2022-08-26T22:33:38.776Z,95883.38
2022-08-26T22:36:05.566Z,95887.53
2022-08-26T22:38:32.288Z,95890.97
2022-08-26T22:41:00.275Z,95881.50
2022-08-26T22:43:28.802Z,95887.13
2022-08-26T22:45:55.788Z,95892.06
2022-08-26T22:48:24.656Z,95894.41
2022-08-26T22:50:56.120Z,95891.41
2022-08-26T22:53:24.849Z,95896.66
2022-08-26T22:55:51.319Z,95897.84
2022-08-26T22:58:20.041Z,95898.66
2022-08-26T23:00:48.556Z,95900.56
2022-08-26T23:03:17.381Z,95904.44
2022-08-26T23:05:45.022Z,95905.28
2022-08-26T23:08:13.508Z,95901.81
2022-08-26T23:10:43.024Z,95910.03
2022-08-26T23:13:09.695Z,95900.91
2022-08-26T23:15:36.475Z,95900.56
2022-08-26T23:18:04.131Z,95899.06
2022-08-26T23:20:32.112Z,95904.88
2022-08-26T23:22:59.709Z,95902.69
2022-08-26T23:25:27.086Z,95901.38
2022-08-26T23:27:53.594Z,95902.19
2022-08-26T23:30:24.573Z,95895.28
2022-08-26T23:32:51.386Z,95889.94
2022-08-26T23:35:21.461Z,95895.19
2022-08-26T23:37:51.146Z,95892.53
2022-08-26T23:40:25.293Z,95895.56
2022-08-26T23:42:54.144Z,95895.97
2022-08-26T23:45:21.933Z,95893.38
2022-08-26T23:47:50.550Z,95890.69
2022-08-26T23:50:19.320Z,95893.38
2022-08-26T23:53:05.331Z,95894.94
2022-08-26T23:55:37.112Z,95895.75
2022-08-26T23:58:03.858Z,95899.13
